sensor_id;sensor_type;location;lat;lon;timestamp;P1;durP1;ratioP1;P2;durP2;ratioP2
21243;SDS011;10780;50.942;4.028;2023-08-06T00:00:21;9.20;;;4.47;;
21243;SDS011;10780;50.942;4.028;2023-08-06T00:02:47;6.82;;;4.30;;
21243;SDS011;10780;50.942;4.028;2023-08-06T00:05:14;7.80;;;4.60;;
21243;SDS011;10780;50.942;4.028;2023-08-06T00:07:52;7.15;;;4.53;;
21243;SDS011;10780;50.942;4.028;2023-08-06T00:10:17;7.43;;;4.57;;
21243;SDS011;10780;50.942;4.028;2023-08-06T00:12:43;8.02;;;5.00;;
21243;SDS011;10780;50.942;4.028;2023-08-06T00:15:10;7.95;;;4.85;;
21243;SDS011;10780;50.942;4.028;2023-08-06T00:17:36;7.50;;;5.50;;
21243;SDS011;10780;50.942;4.028;2023-08-06T00:20:02;8.90;;;5.82;;
21243;SDS011;10780;50.942;4.028;2023-08-06T00:22:36;9.75;;;6.25;;
21243;SDS011;10780;50.942;4.028;2023-08-06T00:25:02;10.35;;;5.78;;
21243;SDS011;10780;50.942;4.028;2023-08-06T00:27:29;9.57;;;6.63;;
21243;SDS011;10780;50.942;4.028;2023-08-06T00:29:55;7.50;;;6.03;;
21243;SDS011;10780;50.942;4.028;2023-08-06T00:32:21;11.98;;;6.70;;
21243;SDS011;10780;50.942;4.028;2023-08-06T00:34:47;11.95;;;6.47;;
21243;SDS011;10780;50.942;4.028;2023-08-06T00:37:14;9.05;;;6.55;;
21243;SDS011;10780;50.942;4.028;2023-08-06T00:39:41;14.32;;;7.13;;
21243;SDS011;10780;50.942;4.028;2023-08-06T00:42:07;11.18;;;6.95;;
21243;SDS011;10780;50.942;4.028;2023-08-06T00:44:33;10.88;;;6.60;;
21243;SDS011;10780;50.942;4.028;2023-08-06T00:46:58;9.18;;;7.28;;
21243;SDS011;10780;50.942;4.028;2023-08-06T00:49:24;10.70;;;7.63;;
21243;SDS011;10780;50.942;4.028;2023-08-06T00:51:50;10.65;;;7.07;;
21243;SDS011;10780;50.942;4.028;2023-08-06T00:54:16;11.75;;;8.00;;
21243;SDS011;10780;50.942;4.028;2023-08-06T00:56:42;13.13;;;8.60;;
21243;SDS011;10780;50.942;4.028;2023-08-06T00:59:08;10.82;;;8.13;;
21243;SDS011;10780;50.942;4.028;2023-08-06T01:01:35;13.65;;;8.38;;
21243;SDS011;10780;50.942;4.028;2023-08-06T01:04:01;9.95;;;7.63;;
21243;SDS011;10780;50.942;4.028;2023-08-06T01:06:43;9.52;;;7.57;;
21243;SDS011;10780;50.942;4.028;2023-08-06T01:11:52;9.52;;;6.78;;
21243;SDS011;10780;50.942;4.028;2023-08-06T01:14:28;11.73;;;6.03;;
21243;SDS011;10780;50.942;4.028;2023-08-06T01:17:01;9.25;;;4.97;;
21243;SDS011;10780;50.942;4.028;2023-08-06T01:19:29;8.27;;;4.07;;
21243;SDS011;10780;50.942;4.028;2023-08-06T01:21:55;11.82;;;4.10;;
21243;SDS011;10780;50.942;4.028;2023-08-06T01:24:20;13.25;;;3.63;;
21243;SDS011;10780;50.942;4.028;2023-08-06T01:27:03;5.13;;;3.05;;
21243;SDS011;10780;50.942;4.028;2023-08-06T01:29:43;7.70;;;3.08;;
21243;SDS011;10780;50.942;4.028;2023-08-06T01:32:12;9.77;;;2.70;;
21243;SDS011;10780;50.942;4.028;2023-08-06T01:34:40;6.47;;;2.08;;
21243;SDS011;10780;50.942;4.028;2023-08-06T01:37:08;5.40;;;1.92;;
21243;SDS011;10780;50.942;4.028;2023-08-06T01:39:35;5.20;;;2.10;;
21243;SDS011;10780;50.942;4.028;2023-08-06T01:42:00;7.50;;;2.25;;
21243;SDS011;10780;50.942;4.028;2023-08-06T01:44:26;8.60;;;1.95;;
21243;SDS011;10780;50.942;4.028;2023-08-06T01:46:52;4.72;;;1.90;;
21243;SDS011;10780;50.942;4.028;2023-08-06T01:49:17;9.05;;;2.70;;
21243;SDS011;10780;50.942;4.028;2023-08-06T01:51:43;4.28;;;1.58;;
21243;SDS011;10780;50.942;4.028;2023-08-06T01:54:08;4.35;;;1.80;;
21243;SDS011;10780;50.942;4.028;2023-08-06T01:56:34;4.10;;;1.75;;
21243;SDS011;10780;50.942;4.028;2023-08-06T01:59:00;6.50;;;2.00;;
21243;SDS011;10780;50.942;4.028;2023-08-06T02:01:25;7.05;;;2.10;;
21243;SDS011;10780;50.942;4.028;2023-08-06T02:03:51;7.47;;;2.50;;
21243;SDS011;10780;50.942;4.028;2023-08-06T02:06:16;8.40;;;2.60;;
21243;SDS011;10780;50.942;4.028;2023-08-06T02:08:42;7.07;;;2.30;;
21243;SDS011;10780;50.942;4.028;2023-08-06T02:11:08;9.25;;;2.65;;
21243;SDS011;10780;50.942;4.028;2023-08-06T02:13:33;9.07;;;3.08;;
21243;SDS011;10780;50.942;4.028;2023-08-06T02:15:59;8.07;;;3.78;;
21243;SDS011;10780;50.942;4.028;2023-08-06T02:18:25;15.85;;;5.10;;
21243;SDS011;10780;50.942;4.028;2023-08-06T02:20:56;11.40;;;6.40;;
21243;SDS011;10780;50.942;4.028;2023-08-06T02:23:25;14.73;;;7.38;;
21243;SDS011;10780;50.942;4.028;2023-08-06T02:26:00;17.13;;;9.27;;
21243;SDS011;10780;50.942;4.028;2023-08-06T02:28:28;14.70;;;9.43;;
21243;SDS011;10780;50.942;4.028;2023-08-06T02:30:54;19.65;;;10.20;;
21243;SDS011;10780;50.942;4.028;2023-08-06T02:33:19;17.25;;;11.55;;
21243;SDS011;10780;50.942;4.028;2023-08-06T02:35:45;24.80;;;13.88;;
21243;SDS011;10780;50.942;4.028;2023-08-06T02:38:11;30.23;;;16.38;;
21243;SDS011;10780;50.942;4.028;2023-08-06T02:40:36;30.10;;;15.77;;
21243;SDS011;10780;50.942;4.028;2023-08-06T02:43:07;28.92;;;14.48;;
21243;SDS011;10780;50.942;4.028;2023-08-06T02:45:33;22.90;;;12.52;;
21243;SDS011;10780;50.942;4.028;2023-08-06T02:47:58;18.25;;;8.25;;
21243;SDS011;10780;50.942;4.028;2023-08-06T02:50:24;10.05;;;5.97;;
21243;SDS011;10780;50.942;4.028;2023-08-06T02:52:49;5.90;;;4.53;;
21243;SDS011;10780;50.942;4.028;2023-08-06T02:55:15;3.17;;;2.58;;
21243;SDS011;10780;50.942;4.028;2023-08-06T02:57:41;2.97;;;2.65;;
21243;SDS011;10780;50.942;4.028;2023-08-06T03:00:06;4.68;;;2.78;;
21243;SDS011;10780;50.942;4.028;2023-08-06T03:02:32;3.45;;;2.95;;
21243;SDS011;10780;50.942;4.028;2023-08-06T03:04:58;6.65;;;2.80;;
21243;SDS011;10780;50.942;4.028;2023-08-06T03:07:23;7.60;;;3.28;;
21243;SDS011;10780;50.942;4.028;2023-08-06T03:09:49;7.10;;;3.83;;
21243;SDS011;10780;50.942;4.028;2023-08-06T03:12:15;9.45;;;3.25;;
21243;SDS011;10780;50.942;4.028;2023-08-06T03:14:40;6.55;;;3.85;;
21243;SDS011;10780;50.942;4.028;2023-08-06T03:17:06;10.63;;;3.55;;
21243;SDS011;10780;50.942;4.028;2023-08-06T03:19:31;6.72;;;3.97;;
21243;SDS011;10780;50.942;4.028;2023-08-06T03:21:57;10.05;;;4.40;;
21243;SDS011;10780;50.942;4.028;2023-08-06T03:24:23;14.00;;;4.85;;
21243;SDS011;10780;50.942;4.028;2023-08-06T03:26:48;10.70;;;4.25;;
21243;SDS011;10780;50.942;4.028;2023-08-06T03:29:14;13.90;;;4.95;;
21243;SDS011;10780;50.942;4.028;2023-08-06T03:31:39;9.32;;;5.45;;
21243;SDS011;10780;50.942;4.028;2023-08-06T03:34:05;12.68;;;5.40;;
21243;SDS011;10780;50.942;4.028;2023-08-06T03:36:31;7.68;;;5.30;;
21243;SDS011;10780;50.942;4.028;2023-08-06T03:38:57;11.35;;;5.75;;
21243;SDS011;10780;50.942;4.028;2023-08-06T03:41:22;11.57;;;5.65;;
21243;SDS011;10780;50.942;4.028;2023-08-06T03:43:48;9.27;;;5.55;;
21243;SDS011;10780;50.942;4.028;2023-08-06T03:46:13;10.32;;;5.90;;
21243;SDS011;10780;50.942;4.028;2023-08-06T03:48:39;13.23;;;6.97;;
21243;SDS011;10780;50.942;4.028;2023-08-06T03:51:05;14.60;;;7.70;;
21243;SDS011;10780;50.942;4.028;2023-08-06T03:53:30;14.40;;;7.60;;
21243;SDS011;10780;50.942;4.028;2023-08-06T03:55:56;15.70;;;7.60;;
21243;SDS011;10780;50.942;4.028;2023-08-06T03:58:25;16.27;;;6.80;;
21243;SDS011;10780;50.942;4.028;2023-08-06T04:00:58;17.00;;;7.88;;
21243;SDS011;10780;50.942;4.028;2023-08-06T04:03:25;20.65;;;8.75;;
21243;SDS011;10780;50.942;4.028;2023-08-06T04:05:50;15.85;;;8.18;;
21243;SDS011;10780;50.942;4.028;2023-08-06T04:08:16;13.05;;;7.22;;
21243;SDS011;10780;50.942;4.028;2023-08-06T04:10:43;15.57;;;8.13;;
21243;SDS011;10780;50.942;4.028;2023-08-06T04:13:08;14.70;;;8.40;;
21243;SDS011;10780;50.942;4.028;2023-08-06T04:15:34;11.32;;;7.40;;
21243;SDS011;10780;50.942;4.028;2023-08-06T04:18:00;14.15;;;7.40;;
21243;SDS011;10780;50.942;4.028;2023-08-06T04:20:25;12.70;;;8.32;;
21243;SDS011;10780;50.942;4.028;2023-08-06T04:22:53;11.55;;;6.72;;
21243;SDS011;10780;50.942;4.028;2023-08-06T04:25:19;13.13;;;7.03;;
21243;SDS011;10780;50.942;4.028;2023-08-06T04:27:49;10.68;;;6.63;;
21243;SDS011;10780;50.942;4.028;2023-08-06T04:30:14;13.18;;;7.20;;
21243;SDS011;10780;50.942;4.028;2023-08-06T04:32:40;14.90;;;6.40;;
21243;SDS011;10780;50.942;4.028;2023-08-06T04:35:06;14.20;;;6.40;;
21243;SDS011;10780;50.942;4.028;2023-08-06T04:37:32;14.38;;;9.07;;
21243;SDS011;10780;50.942;4.028;2023-08-06T04:39:58;24.70;;;11.90;;
21243;SDS011;10780;50.942;4.028;2023-08-06T04:42:23;24.20;;;11.25;;
21243;SDS011;10780;50.942;4.028;2023-08-06T04:44:49;20.75;;;9.27;;
21243;SDS011;10780;50.942;4.028;2023-08-06T04:47:15;17.92;;;8.32;;
21243;SDS011;10780;50.942;4.028;2023-08-06T04:49:41;13.35;;;6.35;;
21243;SDS011;10780;50.942;4.028;2023-08-06T04:52:06;14.45;;;5.97;;
21243;SDS011;10780;50.942;4.028;2023-08-06T04:54:32;17.08;;;6.28;;
21243;SDS011;10780;50.942;4.028;2023-08-06T04:56:58;19.13;;;6.30;;
21243;SDS011;10780;50.942;4.028;2023-08-06T04:59:24;15.82;;;5.47;;
21243;SDS011;10780;50.942;4.028;2023-08-06T05:01:50;12.55;;;5.32;;
21243;SDS011;10780;50.942;4.028;2023-08-06T05:04:15;17.30;;;5.70;;
21243;SDS011;10780;50.942;4.028;2023-08-06T05:06:41;12.55;;;5.35;;
21243;SDS011;10780;50.942;4.028;2023-08-06T05:09:06;11.65;;;5.10;;
21243;SDS011;10780;50.942;4.028;2023-08-06T05:11:32;15.43;;;5.68;;
21243;SDS011;10780;50.942;4.028;2023-08-06T05:13:58;14.07;;;6.10;;
21243;SDS011;10780;50.942;4.028;2023-08-06T05:16:23;16.42;;;5.68;;
21243;SDS011;10780;50.942;4.028;2023-08-06T05:18:49;16.25;;;5.80;;
21243;SDS011;10780;50.942;4.028;2023-08-06T05:21:14;12.82;;;5.40;;
21243;SDS011;10780;50.942;4.028;2023-08-06T05:23:41;11.40;;;4.78;;
21243;SDS011;10780;50.942;4.028;2023-08-06T05:26:07;13.90;;;5.05;;
21243;SDS011;10780;50.942;4.028;2023-08-06T05:28:33;14.32;;;4.80;;
21243;SDS011;10780;50.942;4.028;2023-08-06T05:31:02;13.73;;;4.90;;
21243;SDS011;10780;50.942;4.028;2023-08-06T05:33:31;8.38;;;4.13;;
21243;SDS011;10780;50.942;4.028;2023-08-06T05:35:57;9.10;;;4.53;;
21243;SDS011;10780;50.942;4.028;2023-08-06T05:38:22;9.70;;;4.18;;
21243;SDS011;10780;50.942;4.028;2023-08-06T05:40:48;11.15;;;4.40;;
21243;SDS011;10780;50.942;4.028;2023-08-06T05:43:14;12.98;;;4.18;;
21243;SDS011;10780;50.942;4.028;2023-08-06T05:45:43;13.18;;;4.32;;
21243;SDS011;10780;50.942;4.028;2023-08-06T05:48:10;11.05;;;4.38;;
21243;SDS011;10780;50.942;4.028;2023-08-06T05:50:36;11.48;;;4.50;;
21243;SDS011;10780;50.942;4.028;2023-08-06T05:53:01;10.20;;;4.53;;
21243;SDS011;10780;50.942;4.028;2023-08-06T05:55:27;12.65;;;4.43;;
21243;SDS011;10780;50.942;4.028;2023-08-06T05:57:52;14.55;;;4.80;;
21243;SDS011;10780;50.942;4.028;2023-08-06T06:00:18;9.63;;;4.22;;
21243;SDS011;10780;50.942;4.028;2023-08-06T06:02:45;11.07;;;4.65;;
21243;SDS011;10780;50.942;4.028;2023-08-06T06:05:11;9.63;;;4.50;;
21243;SDS011;10780;50.942;4.028;2023-08-06T06:07:36;13.80;;;3.95;;
21243;SDS011;10780;50.942;4.028;2023-08-06T06:10:02;9.93;;;4.22;;
21243;SDS011;10780;50.942;4.028;2023-08-06T06:12:28;13.75;;;4.38;;
21243;SDS011;10780;50.942;4.028;2023-08-06T06:14:53;9.40;;;4.53;;
21243;SDS011;10780;50.942;4.028;2023-08-06T06:17:19;12.13;;;4.55;;
21243;SDS011;10780;50.942;4.028;2023-08-06T06:19:45;11.23;;;4.00;;
21243;SDS011;10780;50.942;4.028;2023-08-06T06:22:11;12.45;;;4.43;;
21243;SDS011;10780;50.942;4.028;2023-08-06T06:24:37;10.75;;;3.50;;
21243;SDS011;10780;50.942;4.028;2023-08-06T06:27:03;10.48;;;3.75;;
21243;SDS011;10780;50.942;4.028;2023-08-06T06:29:29;7.68;;;3.88;;
21243;SDS011;10780;50.942;4.028;2023-08-06T06:31:54;10.35;;;3.15;;
21243;SDS011;10780;50.942;4.028;2023-08-06T06:34:20;8.05;;;2.45;;
21243;SDS011;10780;50.942;4.028;2023-08-06T06:36:45;6.68;;;2.65;;
21243;SDS011;10780;50.942;4.028;2023-08-06T06:39:11;11.45;;;3.15;;
21243;SDS011;10780;50.942;4.028;2023-08-06T06:41:37;8.38;;;2.58;;
21243;SDS011;10780;50.942;4.028;2023-08-06T06:44:02;9.95;;;2.88;;
21243;SDS011;10780;50.942;4.028;2023-08-06T06:46:28;7.53;;;3.00;;
21243;SDS011;10780;50.942;4.028;2023-08-06T06:48:54;10.55;;;3.17;;
21243;SDS011;10780;50.942;4.028;2023-08-06T06:51:19;10.05;;;3.72;;
21243;SDS011;10780;50.942;4.028;2023-08-06T06:53:45;6.45;;;2.08;;
21243;SDS011;10780;50.942;4.028;2023-08-06T06:56:10;6.65;;;2.45;;
21243;SDS011;10780;50.942;4.028;2023-08-06T06:58:36;6.75;;;2.30;;
21243;SDS011;10780;50.942;4.028;2023-08-06T07:01:04;8.98;;;1.90;;
21243;SDS011;10780;50.942;4.028;2023-08-06T07:03:29;8.45;;;2.95;;
21243;SDS011;10780;50.942;4.028;2023-08-06T07:05:58;10.15;;;2.13;;
21243;SDS011;10780;50.942;4.028;2023-08-06T07:08:24;7.20;;;1.65;;
21243;SDS011;10780;50.942;4.028;2023-08-06T07:10:51;11.57;;;2.20;;
21243;SDS011;10780;50.942;4.028;2023-08-06T07:13:26;6.85;;;2.38;;
21243;SDS011;10780;50.942;4.028;2023-08-06T07:15:52;9.38;;;1.52;;
21243;SDS011;10780;50.942;4.028;2023-08-06T07:18:19;7.10;;;1.88;;
21243;SDS011;10780;50.942;4.028;2023-08-06T07:20:48;9.93;;;1.92;;
21243;SDS011;10780;50.942;4.028;2023-08-06T07:23:17;10.80;;;1.90;;
21243;SDS011;10780;50.942;4.028;2023-08-06T07:25:46;5.78;;;2.17;;
21243;SDS011;10780;50.942;4.028;2023-08-06T07:28:13;9.68;;;2.17;;
21243;SDS011;10780;50.942;4.028;2023-08-06T07:30:39;9.15;;;2.90;;
21243;SDS011;10780;50.942;4.028;2023-08-06T07:33:05;8.65;;;2.10;;
21243;SDS011;10780;50.942;4.028;2023-08-06T07:35:31;9.60;;;2.25;;
21243;SDS011;10780;50.942;4.028;2023-08-06T07:37:57;7.38;;;1.70;;
21243;SDS011;10780;50.942;4.028;2023-08-06T07:40:23;8.63;;;2.30;;
21243;SDS011;10780;50.942;4.028;2023-08-06T07:42:49;8.27;;;2.03;;
21243;SDS011;10780;50.942;4.028;2023-08-06T07:45:14;9.82;;;2.38;;
21243;SDS011;10780;50.942;4.028;2023-08-06T07:47:40;6.63;;;2.05;;
21243;SDS011;10780;50.942;4.028;2023-08-06T07:50:06;10.52;;;2.20;;
21243;SDS011;10780;50.942;4.028;2023-08-06T07:52:32;9.85;;;1.88;;
21243;SDS011;10780;50.942;4.028;2023-08-06T07:54:58;7.97;;;1.88;;
21243;SDS011;10780;50.942;4.028;2023-08-06T07:57:23;8.35;;;2.42;;
21243;SDS011;10780;50.942;4.028;2023-08-06T07:59:49;7.35;;;1.90;;
21243;SDS011;10780;50.942;4.028;2023-08-06T08:02:15;6.45;;;2.00;;
21243;SDS011;10780;50.942;4.028;2023-08-06T08:04:41;9.05;;;2.67;;
21243;SDS011;10780;50.942;4.028;2023-08-06T08:07:06;6.32;;;1.92;;
21243;SDS011;10780;50.942;4.028;2023-08-06T08:09:34;9.07;;;1.80;;
21243;SDS011;10780;50.942;4.028;2023-08-06T08:12:01;7.57;;;2.10;;
21243;SDS011;10780;50.942;4.028;2023-08-06T08:14:27;7.35;;;2.30;;
21243;SDS011;10780;50.942;4.028;2023-08-06T08:16:54;11.35;;;2.53;;
21243;SDS011;10780;50.942;4.028;2023-08-06T08:19:19;7.75;;;1.92;;
21243;SDS011;10780;50.942;4.028;2023-08-06T08:21:46;11.88;;;2.38;;
21243;SDS011;10780;50.942;4.028;2023-08-06T08:24:11;8.43;;;2.08;;
21243;SDS011;10780;50.942;4.028;2023-08-06T08:26:37;7.50;;;2.47;;
21243;SDS011;10780;50.942;4.028;2023-08-06T08:29:03;10.18;;;2.00;;
21243;SDS011;10780;50.942;4.028;2023-08-06T08:31:28;6.50;;;1.77;;
21243;SDS011;10780;50.942;4.028;2023-08-06T08:33:54;7.80;;;2.40;;
21243;SDS011;10780;50.942;4.028;2023-08-06T08:36:20;9.98;;;2.63;;
21243;SDS011;10780;50.942;4.028;2023-08-06T08:38:46;7.13;;;1.95;;
21243;SDS011;10780;50.942;4.028;2023-08-06T08:41:11;7.28;;;2.25;;
21243;SDS011;10780;50.942;4.028;2023-08-06T08:43:37;6.35;;;1.90;;
21243;SDS011;10780;50.942;4.028;2023-08-06T08:46:05;8.25;;;2.60;;
21243;SDS011;10780;50.942;4.028;2023-08-06T08:48:32;8.32;;;2.42;;
21243;SDS011;10780;50.942;4.028;2023-08-06T08:50:58;10.63;;;2.92;;
21243;SDS011;10780;50.942;4.028;2023-08-06T08:53:24;7.75;;;2.08;;
21243;SDS011;10780;50.942;4.028;2023-08-06T08:55:51;9.43;;;2.40;;
21243;SDS011;10780;50.942;4.028;2023-08-06T08:58:18;9.65;;;2.22;;
21243;SDS011;10780;50.942;4.028;2023-08-06T09:00:45;9.07;;;2.67;;
21243;SDS011;10780;50.942;4.028;2023-08-06T09:03:15;10.60;;;2.50;;
21243;SDS011;10780;50.942;4.028;2023-08-06T09:05:43;10.95;;;2.95;;
21243;SDS011;10780;50.942;4.028;2023-08-06T09:08:11;11.57;;;2.85;;
21243;SDS011;10780;50.942;4.028;2023-08-06T09:10:41;9.20;;;2.20;;
21243;SDS011;10780;50.942;4.028;2023-08-06T09:13:08;6.75;;;2.30;;
21243;SDS011;10780;50.942;4.028;2023-08-06T09:15:34;9.40;;;3.20;;
21243;SDS011;10780;50.942;4.028;2023-08-06T09:18:00;9.05;;;3.00;;
21243;SDS011;10780;50.942;4.028;2023-08-06T09:20:33;9.27;;;2.78;;
21243;SDS011;10780;50.942;4.028;2023-08-06T09:23:06;10.52;;;2.30;;
21243;SDS011;10780;50.942;4.028;2023-08-06T09:25:32;9.57;;;2.25;;
21243;SDS011;10780;50.942;4.028;2023-08-06T09:27:58;8.55;;;2.85;;
21243;SDS011;10780;50.942;4.028;2023-08-06T09:30:30;14.73;;;2.50;;
21243;SDS011;10780;50.942;4.028;2023-08-06T09:33:01;14.80;;;2.67;;
21243;SDS011;10780;50.942;4.028;2023-08-06T09:35:30;5.55;;;2.38;;
21243;SDS011;10780;50.942;4.028;2023-08-06T09:38:05;9.75;;;2.15;;
21243;SDS011;10780;50.942;4.028;2023-08-06T09:40:35;10.57;;;2.20;;
21243;SDS011;10780;50.942;4.028;2023-08-06T09:43:01;8.10;;;2.25;;
21243;SDS011;10780;50.942;4.028;2023-08-06T09:45:34;9.00;;;2.42;;
21243;SDS011;10780;50.942;4.028;2023-08-06T09:48:05;6.40;;;1.95;;
21243;SDS011;10780;50.942;4.028;2023-08-06T09:50:32;7.22;;;1.90;;
21243;SDS011;10780;50.942;4.028;2023-08-06T09:53:01;5.50;;;1.70;;
21243;SDS011;10780;50.942;4.028;2023-08-06T09:55:32;6.75;;;1.70;;
21243;SDS011;10780;50.942;4.028;2023-08-06T09:57:58;9.52;;;1.88;;
21243;SDS011;10780;50.942;4.028;2023-08-06T10:00:24;8.65;;;1.90;;
21243;SDS011;10780;50.942;4.028;2023-08-06T10:02:51;9.63;;;1.98;;
21243;SDS011;10780;50.942;4.028;2023-08-06T10:05:20;9.15;;;2.13;;
21243;SDS011;10780;50.942;4.028;2023-08-06T10:07:47;8.75;;;2.55;;
21243;SDS011;10780;50.942;4.028;2023-08-06T10:10:15;7.10;;;2.63;;
21243;SDS011;10780;50.942;4.028;2023-08-06T10:12:50;9.65;;;2.25;;
21243;SDS011;10780;50.942;4.028;2023-08-06T10:15:21;7.00;;;2.53;;
21243;SDS011;10780;50.942;4.028;2023-08-06T10:17:50;6.57;;;2.65;;
21243;SDS011;10780;50.942;4.028;2023-08-06T10:20:19;8.30;;;2.33;;
21243;SDS011;10780;50.942;4.028;2023-08-06T10:22:55;4.22;;;2.38;;
21243;SDS011;10780;50.942;4.028;2023-08-06T10:25:25;9.57;;;2.70;;
21243;SDS011;10780;50.942;4.028;2023-08-06T10:30:32;8.85;;;1.98;;
21243;SDS011;10780;50.942;4.028;2023-08-06T10:33:07;12.90;;;2.53;;
21243;SDS011;10780;50.942;4.028;2023-08-06T10:35:50;5.38;;;1.92;;
21243;SDS011;10780;50.942;4.028;2023-08-06T10:38:17;9.20;;;2.17;;
21243;SDS011;10780;50.942;4.028;2023-08-06T10:40:48;7.35;;;2.78;;
21243;SDS011;10780;50.942;4.028;2023-08-06T10:43:24;7.05;;;2.45;;
21243;SDS011;10780;50.942;4.028;2023-08-06T10:45:54;6.97;;;2.53;;
21243;SDS011;10780;50.942;4.028;2023-08-06T10:51:09;6.60;;;2.10;;
21243;SDS011;10780;50.942;4.028;2023-08-06T10:53:37;4.88;;;2.08;;
21243;SDS011;10780;50.942;4.028;2023-08-06T10:56:13;5.28;;;2.30;;
21243;SDS011;10780;50.942;4.028;2023-08-06T10:58:40;8.82;;;2.00;;
21243;SDS011;10780;50.942;4.028;2023-08-06T11:01:06;8.95;;;2.20;;
21243;SDS011;10780;50.942;4.028;2023-08-06T11:03:35;9.98;;;2.20;;
21243;SDS011;10780;50.942;4.028;2023-08-06T11:06:01;6.25;;;1.98;;
21243;SDS011;10780;50.942;4.028;2023-08-06T11:08:28;11.07;;;2.38;;
21243;SDS011;10780;50.942;4.028;2023-08-06T11:10:54;6.60;;;2.00;;
21243;SDS011;10780;50.942;4.028;2023-08-06T11:13:32;8.00;;;2.53;;
21243;SDS011;10780;50.942;4.028;2023-08-06T11:15:58;8.65;;;2.20;;
21243;SDS011;10780;50.942;4.028;2023-08-06T11:18:23;8.55;;;1.95;;
21243;SDS011;10780;50.942;4.028;2023-08-06T11:20:49;6.72;;;2.17;;
21243;SDS011;10780;50.942;4.028;2023-08-06T11:23:15;5.97;;;1.98;;
21243;SDS011;10780;50.942;4.028;2023-08-06T11:25:44;10.77;;;2.38;;
21243;SDS011;10780;50.942;4.028;2023-08-06T11:28:10;8.52;;;2.53;;
21243;SDS011;10780;50.942;4.028;2023-08-06T11:30:37;8.40;;;2.17;;
21243;SDS011;10780;50.942;4.028;2023-08-06T11:33:03;7.53;;;2.55;;
21243;SDS011;10780;50.942;4.028;2023-08-06T11:35:33;7.57;;;2.00;;
21243;SDS011;10780;50.942;4.028;2023-08-06T11:38:00;6.65;;;2.20;;
21243;SDS011;10780;50.942;4.028;2023-08-06T11:40:26;6.22;;;1.80;;
21243;SDS011;10780;50.942;4.028;2023-08-06T11:42:52;4.65;;;1.90;;
21243;SDS011;10780;50.942;4.028;2023-08-06T11:45:21;6.65;;;2.20;;
21243;SDS011;10780;50.942;4.028;2023-08-06T11:47:51;7.05;;;2.30;;
21243;SDS011;10780;50.942;4.028;2023-08-06T11:50:27;7.00;;;2.17;;
21243;SDS011;10780;50.942;4.028;2023-08-06T11:52:56;9.40;;;2.28;;
21243;SDS011;10780;50.942;4.028;2023-08-06T11:55:25;7.32;;;2.20;;
21243;SDS011;10780;50.942;4.028;2023-08-06T11:57:53;5.88;;;2.88;;
21243;SDS011;10780;50.942;4.028;2023-08-06T12:00:19;8.70;;;2.20;;
21243;SDS011;10780;50.942;4.028;2023-08-06T12:02:47;6.60;;;2.17;;
21243;SDS011;10780;50.942;4.028;2023-08-06T12:05:21;7.85;;;2.60;;
21243;SDS011;10780;50.942;4.028;2023-08-06T12:07:59;8.20;;;2.08;;
21243;SDS011;10780;50.942;4.028;2023-08-06T12:10:26;5.75;;;1.90;;
21243;SDS011;10780;50.942;4.028;2023-08-06T12:12:53;8.10;;;2.13;;
21243;SDS011;10780;50.942;4.028;2023-08-06T12:15:19;8.25;;;2.80;;
21243;SDS011;10780;50.942;4.028;2023-08-06T12:17:45;7.07;;;2.63;;
21243;SDS011;10780;50.942;4.028;2023-08-06T12:20:11;10.13;;;2.30;;
21243;SDS011;10780;50.942;4.028;2023-08-06T12:22:37;8.07;;;2.10;;
21243;SDS011;10780;50.942;4.028;2023-08-06T12:25:12;6.03;;;2.20;;
21243;SDS011;10780;50.942;4.028;2023-08-06T12:27:39;5.32;;;1.73;;
21243;SDS011;10780;50.942;4.028;2023-08-06T12:30:07;8.88;;;2.50;;
21243;SDS011;10780;50.942;4.028;2023-08-06T12:32:33;7.93;;;2.05;;
21243;SDS011;10780;50.942;4.028;2023-08-06T12:35:00;5.75;;;2.53;;
21243;SDS011;10780;50.942;4.028;2023-08-06T12:37:26;13.05;;;2.35;;
21243;SDS011;10780;50.942;4.028;2023-08-06T12:39:52;10.85;;;2.67;;
21243;SDS011;10780;50.942;4.028;2023-08-06T12:42:18;7.32;;;2.35;;
21243;SDS011;10780;50.942;4.028;2023-08-06T12:44:43;7.65;;;2.30;;
21243;SDS011;10780;50.942;4.028;2023-08-06T12:47:09;9.02;;;2.42;;
21243;SDS011;10780;50.942;4.028;2023-08-06T12:49:35;6.13;;;2.22;;
21243;SDS011;10780;50.942;4.028;2023-08-06T12:52:00;4.78;;;1.90;;
21243;SDS011;10780;50.942;4.028;2023-08-06T12:54:27;10.75;;;2.50;;
21243;SDS011;10780;50.942;4.028;2023-08-06T12:56:53;7.47;;;2.10;;
21243;SDS011;10780;50.942;4.028;2023-08-06T12:59:20;8.82;;;2.33;;
21243;SDS011;10780;50.942;4.028;2023-08-06T13:01:45;11.15;;;2.10;;
21243;SDS011;10780;50.942;4.028;2023-08-06T13:04:11;8.02;;;2.13;;
21243;SDS011;10780;50.942;4.028;2023-08-06T13:06:37;5.35;;;1.80;;
21243;SDS011;10780;50.942;4.028;2023-08-06T13:09:08;7.38;;;2.08;;
21243;SDS011;10780;50.942;4.028;2023-08-06T13:11:37;5.30;;;1.80;;
21243;SDS011;10780;50.942;4.028;2023-08-06T13:14:05;6.00;;;1.75;;
21243;SDS011;10780;50.942;4.028;2023-08-06T13:16:35;5.00;;;1.88;;
21243;SDS011;10780;50.942;4.028;2023-08-06T13:19:03;9.43;;;1.80;;
21243;SDS011;10780;50.942;4.028;2023-08-06T13:22:03;9.68;;;2.08;;
21243;SDS011;10780;50.942;4.028;2023-08-06T13:24:23;6.93;;;2.00;;
21243;SDS011;10780;50.942;4.028;2023-08-06T13:26:49;6.00;;;1.85;;
21243;SDS011;10780;50.942;4.028;2023-08-06T13:29:14;7.50;;;2.00;;
21243;SDS011;10780;50.942;4.028;2023-08-06T13:31:40;3.88;;;1.70;;
21243;SDS011;10780;50.942;4.028;2023-08-06T13:34:06;6.90;;;1.85;;
21243;SDS011;10780;50.942;4.028;2023-08-06T13:36:31;5.50;;;1.52;;
21243;SDS011;10780;50.942;4.028;2023-08-06T13:38:57;8.45;;;1.83;;
21243;SDS011;10780;50.942;4.028;2023-08-06T13:41:22;6.05;;;1.85;;
21243;SDS011;10780;50.942;4.028;2023-08-06T13:43:48;7.40;;;2.38;;
21243;SDS011;10780;50.942;4.028;2023-08-06T13:46:14;7.68;;;1.90;;
21243;SDS011;10780;50.942;4.028;2023-08-06T13:48:42;4.88;;;1.60;;
21243;SDS011;10780;50.942;4.028;2023-08-06T13:51:09;7.65;;;1.98;;
21243;SDS011;10780;50.942;4.028;2023-08-06T13:53:36;11.63;;;1.75;;
21243;SDS011;10780;50.942;4.028;2023-08-06T13:56:02;7.72;;;1.80;;
21243;SDS011;10780;50.942;4.028;2023-08-06T13:58:28;6.03;;;1.90;;
21243;SDS011;10780;50.942;4.028;2023-08-06T14:00:53;5.50;;;2.15;;
21243;SDS011;10780;50.942;4.028;2023-08-06T14:03:19;6.75;;;2.05;;
21243;SDS011;10780;50.942;4.028;2023-08-06T14:05:45;7.05;;;2.50;;
21243;SDS011;10780;50.942;4.028;2023-08-06T14:08:11;8.30;;;1.88;;
21243;SDS011;10780;50.942;4.028;2023-08-06T14:10:37;6.75;;;2.00;;
21243;SDS011;10780;50.942;4.028;2023-08-06T14:13:02;4.80;;;2.00;;
21243;SDS011;10780;50.942;4.028;2023-08-06T14:15:28;8.38;;;1.67;;
21243;SDS011;10780;50.942;4.028;2023-08-06T14:17:54;7.25;;;2.13;;
21243;SDS011;10780;50.942;4.028;2023-08-06T14:20:19;8.80;;;2.05;;
21243;SDS011;10780;50.942;4.028;2023-08-06T14:22:45;8.68;;;1.88;;
21243;SDS011;10780;50.942;4.028;2023-08-06T14:25:10;5.93;;;2.20;;
21243;SDS011;10780;50.942;4.028;2023-08-06T14:27:36;15.52;;;2.38;;
21243;SDS011;10780;50.942;4.028;2023-08-06T14:30:04;8.90;;;2.22;;
21243;SDS011;10780;50.942;4.028;2023-08-06T14:32:31;5.28;;;1.92;;
21243;SDS011;10780;50.942;4.028;2023-08-06T14:34:57;5.68;;;1.88;;
21243;SDS011;10780;50.942;4.028;2023-08-06T14:37:23;4.47;;;1.90;;
21243;SDS011;10780;50.942;4.028;2023-08-06T14:39:49;8.48;;;2.42;;
21243;SDS011;10780;50.942;4.028;2023-08-06T14:42:15;9.48;;;2.72;;
21243;SDS011;10780;50.942;4.028;2023-08-06T14:44:41;8.05;;;1.92;;
21243;SDS011;10780;50.942;4.028;2023-08-06T14:47:06;6.80;;;2.30;;
21243;SDS011;10780;50.942;4.028;2023-08-06T14:49:32;6.18;;;1.70;;